Time;durP1;ratioP1;P1;durP2;ratioP2;P2;SDS_P1;SDS_P2;PMS_P1;PMS_P2;Temp;Humidity;BMP_temperature;BMP_pressure;BME280_temperature;BME280_humidity;BME280_pressure;Samples;Min_cycle;Max_cycle;Signal;HPM_P1;HPM_P2
2021/09/06 00:00:38;;;;;;;18.65;11.02;;;13.40;94.60;;;;;;5021258;28;20075;-59
2021/09/06 00:03:03;;;;;;;16.85;11.75;;;13.30;94.50;;;;;;5006312;28;20041;-59
2021/09/06 00:05:29;;;;;;;15.80;10.75;;;13.40;94.70;;;;;;5014273;28;20508;-59
2021/09/06 00:07:54;;;;;;;21.38;12.35;;;13.30;94.60;;;;;;5017157;28;20042;-59
2021/09/06 00:10:29;;;;;;;18.63;11.88;;;13.30;94.80;;;;;;5000942;28;20038;-59
2021/09/06 00:12:54;;;;;;;17.67;11.13;;;13.30;94.80;;;;;;5008328;28;20077;-59
2021/09/06 00:15:20;;;;;;;17.55;11.23;;;13.40;94.90;;;;;;4995690;28;20112;-58
2021/09/06 00:17:45;;;;;;;19.33;11.05;;;13.30;94.70;;;;;;5023571;28;20167;-59
2021/09/06 00:20:11;;;;;;;19.67;11.48;;;13.30;94.80;;;;;;5011769;28;20038;-59
2021/09/06 00:22:37;;;;;;;19.67;12.55;;;13.30;94.90;;;;;;5010707;28;20065;-59
2021/09/06 00:25:03;;;;;;;18.85;10.95;;;13.20;94.90;;;;;;5008498;28;20551;-59
2021/09/06 00:27:28;;;;;;;17.67;11.35;;;13.20;95.00;;;;;;5002521;28;20497;-59
2021/09/06 00:29:54;;;;;;;16.27;11.02;;;13.20;95.10;;;;;;5009440;28;20045;-59
2021/09/06 00:32:19;;;;;;;22.42;11.60;;;13.10;94.90;;;;;;5023851;28;20038;-59
2021/09/06 00:34:45;;;;;;;19.17;11.40;;;13.10;95.00;;;;;;5009746;28;20498;-59
2021/09/06 00:37:10;;;;;;;21.33;11.88;;;13.10;95.10;;;;;;4979520;28;20030;-59
2021/09/06 00:39:36;;;;;;;17.33;10.90;;;13.00;95.20;;;;;;5000379;28;20035;-58
2021/09/06 00:42:01;;;;;;;18.02;11.63;;;13.00;95.40;;;;;;5008255;28;20045;-59
2021/09/06 00:44:27;;;;;;;17.88;11.13;;;13.00;95.50;;;;;;5021680;28;20041;-59
2021/09/06 00:46:52;;;;;;;20.45;12.52;;;12.90;95.60;;;;;;4995241;28;20042;-57
2021/09/06 00:49:19;;;;;;;19.15;11.40;;;12.90;95.80;;;;;;5010364;28;20042;-58
2021/09/06 00:51:46;;;;;;;19.02;11.93;;;13.00;95.80;;;;;;5010635;28;20057;-58
2021/09/06 00:54:13;;;;;;;17.63;9.77;;;12.90;95.70;;;;;;5019278;28;20038;-59
2021/09/06 00:56:38;;;;;;;12.48;8.57;;;12.90;95.70;;;;;;5020499;28;20177;-59
2021/09/06 00:59:04;;;;;;;18.90;11.32;;;12.80;95.10;;;;;;5011696;28;20129;-59
2021/09/06 01:01:30;;;;;;;17.20;12.13;;;12.70;95.10;;;;;;5010133;28;20050;-59
2021/09/06 01:03:55;;;;;;;15.15;9.15;;;12.70;95.40;;;;;;5006682;28;20045;-59
2021/09/06 01:06:21;;;;;;;12.88;8.40;;;12.60;95.40;;;;;;5006945;28;20084;-59
2021/09/06 01:08:46;;;;;;;15.63;8.05;;;12.60;94.90;;;;;;4997932;28;20451;-59
2021/09/06 01:11:12;;;;;;;17.48;10.13;;;12.50;94.70;;;;;;5005144;28;20054;-59
2021/09/06 01:13:38;;;;;;;16.92;10.98;;;12.40;95.00;;;;;;5009705;28;20409;-59
2021/09/06 01:16:03;;;;;;;18.17;9.00;;;12.40;95.40;;;;;;5022489;28;20051;-59
2021/09/06 01:18:29;;;;;;;12.38;8.75;;;12.40;94.90;;;;;;5011515;28;20038;-59
2021/09/06 01:20:55;;;;;;;17.23;9.50;;;12.30;94.80;;;;;;5009904;28;20065;-59
2021/09/06 01:23:20;;;;;;;17.10;10.13;;;12.20;94.70;;;;;;4981799;28;20034;-59
2021/09/06 01:25:50;;;;;;;19.60;11.05;;;12.20;95.00;;;;;;5010673;28;20129;-59
2021/09/06 01:28:16;;;;;;;20.85;11.88;;;12.30;95.70;;;;;;5010469;28;20052;-59
2021/09/06 01:30:42;;;;;;;14.40;9.68;;;12.30;95.90;;;;;;5014237;28;20129;-59
2021/09/06 01:33:07;;;;;;;14.13;8.88;;;12.20;95.80;;;;;;5021214;28;20096;-58
2021/09/06 01:35:33;;;;;;;14.15;9.20;;;12.20;95.40;;;;;;5002879;28;20042;-59
2021/09/06 01:37:58;;;;;;;14.30;8.55;;;12.20;95.20;;;;;;5025567;28;20120;-59
2021/09/06 01:40:25;;;;;;;13.20;8.70;;;12.10;95.20;;;;;;5013271;28;20084;-59
2021/09/06 01:42:52;;;;;;;13.30;8.95;;;12.00;95.10;;;;;;5013916;28;20057;-58
2021/09/06 01:45:18;;;;;;;16.75;10.57;;;12.00;95.30;;;;;;5025011;28;20397;-59
2021/09/06 01:47:43;;;;;;;19.65;10.95;;;12.00;95.50;;;;;;4997319;28;20069;-58
2021/09/06 01:50:10;;;;;;;17.55;11.30;;;12.00;95.90;;;;;;5014704;28;20112;-59
2021/09/06 01:52:36;;;;;;;21.02;11.30;;;12.00;95.90;;;;;;5000568;28;20030;-58
2021/09/06 01:55:03;;;;;;;21.30;12.10;;;12.00;96.40;;;;;;4996612;28;20298;-59
2021/09/06 01:57:29;;;;;;;22.75;11.50;;;12.00;96.90;;;;;;5007586;28;20057;-59
2021/09/06 01:59:56;;;;;;;19.52;12.05;;;12.20;97.30;;;;;;5014008;28;20049;-59
2021/09/06 02:02:22;;;;;;;12.50;7.70;;;12.20;97.00;;;;;;5001920;28;20053;-59
2021/09/06 02:04:49;;;;;;;13.23;8.70;;;12.10;96.20;;;;;;4994618;28;20415;-58
2021/09/06 02:07:14;;;;;;;13.43;8.82;;;12.00;96.00;;;;;;5004011;28;20963;-59
2021/09/06 02:09:40;;;;;;;13.65;8.18;;;11.90;96.00;;;;;;5012834;28;20121;-58
2021/09/06 02:12:06;;;;;;;15.68;9.90;;;11.90;96.00;;;;;;5013177;28;20033;-59
2021/09/06 02:14:31;;;;;;;21.55;12.65;;;11.80;96.10;;;;;;5011655;28;20038;-59
2021/09/06 02:16:57;;;;;;;17.27;11.35;;;11.90;96.70;;;;;;5003976;28;20057;-59
2021/09/06 02:19:23;;;;;;;8.70;5.75;;;11.90;96.80;;;;;;5005269;28;20042;-59
2021/09/06 02:21:48;;;;;;;9.07;6.20;;;11.90;96.50;;;;;;4978991;28;20405;-58
2021/09/06 02:24:15;;;;;;;11.25;7.85;;;11.90;95.80;;;;;;5004770;28;20042;-59
2021/09/06 02:26:40;;;;;;;13.60;7.45;;;11.80;95.60;;;;;;4995522;28;20101;-58
2021/09/06 02:29:06;;;;;;;11.85;7.45;;;11.70;95.20;;;;;;4993476;28;20050;-59
2021/09/06 02:31:32;;;;;;;11.52;7.68;;;11.50;95.10;;;;;;4998799;28;20121;-58
2021/09/06 02:33:57;;;;;;;14.07;8.57;;;11.40;95.10;;;;;;5009044;28;20398;-59
2021/09/06 02:36:23;;;;;;;14.38;9.20;;;11.40;95.30;;;;;;5001057;28;20044;-59
2021/09/06 02:38:49;;;;;;;13.90;8.57;;;11.30;95.30;;;;;;4998777;28;20030;-58
2021/09/06 02:41:14;;;;;;;14.32;9.00;;;11.30;95.40;;;;;;5000810;28;20034;-59
2021/09/06 02:43:41;;;;;;;15.02;9.15;;;11.30;95.50;;;;;;4997391;28;20124;-59
2021/09/06 02:46:06;;;;;;;15.45;9.52;;;11.30;95.70;;;;;;4992676;28;20042;-59
2021/09/06 02:48:32;;;;;;;15.27;9.82;;;11.30;95.90;;;;;;4998669;28;20660;-59
2021/09/06 02:50:57;;;;;;;15.68;10.48;;;11.30;96.10;;;;;;4997669;28;20065;-59
2021/09/06 02:53:23;;;;;;;16.50;10.50;;;11.30;96.10;;;;;;4981091;28;20521;-59
2021/09/06 02:55:49;;;;;;;13.77;9.73;;;11.30;96.20;;;;;;5010673;28;20049;-59
2021/09/06 02:58:14;;;;;;;17.55;10.93;;;11.30;96.20;;;;;;5003497;28;20120;-58
2021/09/06 03:00:40;;;;;;;15.40;10.00;;;11.30;96.30;;;;;;5002618;28;20043;-59
2021/09/06 03:03:06;;;;;;;16.85;10.60;;;11.30;96.40;;;;;;4995760;28;20069;-59
2021/09/06 03:05:32;;;;;;;12.35;8.63;;;11.20;96.40;;;;;;4996775;28;20068;-59
2021/09/06 03:07:58;;;;;;;10.90;8.00;;;11.30;96.80;;;;;;4994492;28;20502;-58
2021/09/06 03:10:24;;;;;;;10.63;7.20;;;11.30;96.40;;;;;;4994413;28;20042;-56
2021/09/06 03:12:49;;;;;;;17.45;8.93;;;11.20;96.10;;;;;;4997147;28;20473;-58
2021/09/06 03:15:15;;;;;;;16.48;9.48;;;11.20;95.90;;;;;;4994271;28;20070;-59
2021/09/06 03:17:41;;;;;;;13.63;8.90;;;11.20;95.90;;;;;;4995738;28;20034;-58
2021/09/06 03:20:07;;;;;;;14.05;9.30;;;11.10;96.00;;;;;;4995037;28;20047;-59
2021/09/06 03:22:33;;;;;;;11.02;7.85;;;11.10;96.00;;;;;;4994566;28;20398;-58
2021/09/06 03:24:58;;;;;;;11.80;7.55;;;11.10;96.00;;;;;;4998067;28;20042;-59
2021/09/06 03:27:24;;;;;;;15.07;9.55;;;11.10;95.80;;;;;;4999263;28;20053;-58
2021/09/06 03:29:49;;;;;;;15.02;10.10;;;11.10;95.80;;;;;;5002220;28;20471;-59
2021/09/06 03:32:15;;;;;;;15.68;10.23;;;11.00;96.00;;;;;;5007439;28;20109;-59
2021/09/06 03:34:40;;;;;;;14.82;9.27;;;11.10;96.10;;;;;;5003054;28;20088;-59
2021/09/06 03:37:06;;;;;;;13.27;9.13;;;11.10;96.20;;;;;;5009747;28;20513;-58
2021/09/06 03:39:32;;;;;;;15.48;10.10;;;11.10;96.20;;;;;;5007916;28;20135;-59
2021/09/06 03:41:57;;;;;;;19.27;11.70;;;11.10;96.20;;;;;;5008446;28;20091;-59
2021/09/06 03:44:24;;;;;;;17.63;10.85;;;11.00;96.20;;;;;;5009685;28;20038;-59
2021/09/06 03:46:51;;;;;;;18.30;11.02;;;11.00;96.30;;;;;;5001975;28;20039;-59
2021/09/06 03:49:16;;;;;;;17.10;10.23;;;10.90;96.30;;;;;;5003269;28;20073;-58
2021/09/06 03:51:42;;;;;;;16.27;10.30;;;10.90;96.60;;;;;;4991953;28;20388;-59
2021/09/06 03:54:07;;;;;;;22.90;10.50;;;10.80;96.50;;;;;;4991007;28;20046;-59
2021/09/06 03:56:33;;;;;;;18.95;10.65;;;10.80;96.60;;;;;;5002689;28;20049;-59
2021/09/06 03:58:58;;;;;;;14.55;7.72;;;10.80;96.60;;;;;;5005558;28;20045;-59
2021/09/06 04:01:24;;;;;;;12.40;8.10;;;10.80;96.50;;;;;;5005332;28;20041;-59
2021/09/06 04:03:49;;;;;;;10.27;6.60;;;10.80;96.40;;;;;;5004990;28;20045;-59
2021/09/06 04:06:15;;;;;;;14.00;8.25;;;10.70;96.30;;;;;;5004800;28;20034;-58
2021/09/06 04:08:41;;;;;;;12.85;8.90;;;10.70;96.20;;;;;;5006289;28;20037;-59
2021/09/06 04:11:08;;;;;;;15.65;9.10;;;10.70;96.20;;;;;;4997760;28;20077;-58
2021/09/06 04:13:33;;;;;;;15.05;9.63;;;10.70;96.30;;;;;;4994485;28;20038;-59
2021/09/06 04:15:59;;;;;;;15.80;10.20;;;10.70;96.50;;;;;;4994072;28;20526;-59
2021/09/06 04:18:26;;;;;;;15.25;9.40;;;10.70;96.40;;;;;;4997900;28;20034;-58
2021/09/06 04:20:52;;;;;;;15.65;9.05;;;10.70;96.40;;;;;;5000541;28;20026;-58
2021/09/06 04:23:18;;;;;;;16.45;11.05;;;10.80;96.30;;;;;;4991481;28;20030;-59
2021/09/06 04:25:43;;;;;;;20.20;12.38;;;10.70;96.40;;;;;;5012872;28;20073;-58
2021/09/06 04:28:09;;;;;;;18.58;11.60;;;10.70;96.50;;;;;;5011778;28;20053;-59
2021/09/06 04:30:34;;;;;;;17.13;11.75;;;10.80;96.80;;;;;;4995913;28;20038;-59
2021/09/06 04:33:00;;;;;;;17.42;11.25;;;10.80;96.60;;;;;;4995795;28;20125;-58
2021/09/06 04:35:25;;;;;;;19.65;11.48;;;10.70;96.60;;;;;;4997295;28;20031;-57
2021/09/06 04:37:51;;;;;;;13.85;9.05;;;10.70;96.70;;;;;;4996424;28;20112;-59
2021/09/06 04:40:16;;;;;;;10.45;6.85;;;10.70;96.70;;;;;;5013248;28;20049;-58
2021/09/06 04:42:42;;;;;;;11.45;7.35;;;10.60;96.30;;;;;;5000307;28;20038;-59
2021/09/06 04:45:09;;;;;;;17.00;9.00;;;10.60;96.30;;;;;;5002423;28;20394;-58
2021/09/06 04:47:34;;;;;;;15.48;9.75;;;10.60;96.40;;;;;;5010424;28;20494;-59
2021/09/06 04:50:00;;;;;;;17.08;10.18;;;10.60;96.70;;;;;;5001249;28;20041;-59
2021/09/06 04:52:26;;;;;;;16.77;10.23;;;10.60;96.90;;;;;;5010239;28;20038;-58
2021/09/06 04:54:51;;;;;;;11.18;7.82;;;10.60;97.00;;;;;;5008209;28;20033;-59
2021/09/06 04:57:17;;;;;;;17.27;9.50;;;10.60;97.10;;;;;;5006524;28;20128;-57
2021/09/06 04:59:42;;;;;;;15.90;10.00;;;10.60;96.70;;;;;;5011707;28;20036;-58
2021/09/06 05:02:08;;;;;;;20.15;9.88;;;10.60;96.60;;;;;;5009960;28;20038;-58
2021/09/06 05:04:33;;;;;;;23.00;13.35;;;10.60;96.70;;;;;;5006854;28;20119;-59
2021/09/06 05:06:59;;;;;;;15.15;9.68;;;10.60;97.00;;;;;;5009606;28;20410;-58
2021/09/06 05:09:27;;;;;;;13.38;7.82;;;10.70;97.20;;;;;;5005300;28;20038;-59
2021/09/06 05:11:53;;;;;;;14.38;9.23;;;10.70;96.60;;;;;;5007354;28;20045;-59
2021/09/06 05:14:18;;;;;;;12.77;8.75;;;10.60;96.10;;;;;;5000100;28;20137;-57
2021/09/06 05:16:44;;;;;;;16.10;9.85;;;10.60;96.10;;;;;;4998133;28;20069;-58
2021/09/06 05:19:09;;;;;;;13.77;9.43;;;10.50;96.20;;;;;;5008869;28;20041;-58
2021/09/06 05:21:35;;;;;;;16.50;10.15;;;10.50;96.30;;;;;;4999211;28;20038;-59
2021/09/06 05:24:02;;;;;;;18.88;11.30;;;10.50;96.40;;;;;;4997271;28;20038;-58
2021/09/06 05:26:27;;;;;;;21.88;12.45;;;10.60;96.70;;;;;;5000865;28;20045;-59
2021/09/06 05:28:53;;;;;;;21.88;13.10;;;10.60;96.80;;;;;;4996765;28;20654;-59
2021/09/06 05:31:18;;;;;;;14.32;8.95;;;10.60;96.90;;;;;;5000574;28;20033;-59
2021/09/06 05:33:44;;;;;;;14.05;9.57;;;10.60;96.80;;;;;;4997341;28;20034;-58
2021/09/06 05:36:13;;;;;;;13.95;8.48;;;10.60;96.60;;;;;;4982915;28;20034;-59
2021/09/06 05:38:39;;;;;;;18.60;11.07;;;10.60;96.50;;;;;;4997565;28;20499;-58
2021/09/06 05:41:06;;;;;;;14.73;10.18;;;10.60;96.50;;;;;;4997106;28;20047;-59
2021/09/06 05:43:31;;;;;;;21.60;12.90;;;10.70;96.60;;;;;;4994195;28;20557;-59
2021/09/06 05:45:57;;;;;;;21.48;12.90;;;10.70;96.70;;;;;;5011523;28;20574;-58
2021/09/06 05:48:22;;;;;;;16.52;10.30;;;10.80;96.80;;;;;;5009115;28;20034;-59
2021/09/06 05:50:48;;;;;;;15.52;10.05;;;10.80;96.90;;;;;;5010044;28;20053;-58
2021/09/06 05:53:15;;;;;;;14.93;9.98;;;10.80;96.80;;;;;;5013417;28;20048;-59
2021/09/06 05:55:41;;;;;;;13.98;9.32;;;10.80;96.70;;;;;;5007788;28;20057;-59
2021/09/06 05:58:07;;;;;;;18.67;11.43;;;10.80;96.70;;;;;;5011349;28;20095;-59
2021/09/06 06:00:32;;;;;;;18.55;11.55;;;10.70;96.70;;;;;;5006541;28;20109;-59
2021/09/06 06:02:58;;;;;;;24.52;12.10;;;10.90;97.10;;;;;;5012855;28;20034;-59
2021/09/06 06:05:24;;;;;;;16.65;10.60;;;10.90;97.00;;;;;;5012542;28;20038;-59
2021/09/06 06:07:49;;;;;;;15.18;9.23;;;11.00;97.10;;;;;;5009775;28;20092;-59
2021/09/06 06:10:15;;;;;;;17.20;10.40;;;11.10;96.90;;;;;;5008996;28;20048;-59
2021/09/06 06:12:40;;;;;;;19.73;11.35;;;11.10;96.90;;;;;;4997724;28;20490;-59
2021/09/06 06:15:06;;;;;;;21.10;12.52;;;11.10;96.80;;;;;;4996428;28;20038;-56
2021/09/06 06:17:31;;;;;;;21.42;13.57;;;11.10;96.80;;;;;;4997443;28;20480;-58
2021/09/06 06:19:57;;;;;;;18.88;12.18;;;11.10;96.80;;;;;;4999399;28;20050;-59
2021/09/06 06:22:23;;;;;;;21.40;12.15;;;11.20;96.90;;;;;;4981561;28;20483;-57
2021/09/06 06:24:48;;;;;;;21.38;12.52;;;11.20;97.00;;;;;;5001379;28;20524;-59
2021/09/06 06:27:14;;;;;;;26.40;13.90;;;11.30;97.20;;;;;;5004257;28;20050;-57
2021/09/06 06:29:39;;;;;;;24.73;14.88;;;11.40;97.30;;;;;;4999641;28;20410;-59
2021/09/06 06:32:05;;;;;;;25.13;14.23;;;11.40;97.40;;;;;;5006308;28;20506;-59
2021/09/06 06:34:31;;;;;;;29.13;14.77;;;11.50;97.50;;;;;;4997419;28;20046;-57
2021/09/06 06:36:56;;;;;;;26.60;14.63;;;11.60;97.60;;;;;;5000778;28;20521;-59
2021/09/06 06:39:22;;;;;;;27.95;15.98;;;11.70;97.50;;;;;;5000933;28;20137;-57
2021/09/06 06:41:49;;;;;;;26.42;16.50;;;11.70;97.60;;;;;;4996476;28;20534;-58
2021/09/06 06:44:14;;;;;;;29.50;17.08;;;11.80;97.60;;;;;;5010505;28;20502;-59
2021/09/06 06:46:40;;;;;;;35.13;19.88;;;11.90;97.80;;;;;;5012800;28;20113;-59
2021/09/06 06:49:06;;;;;;;28.50;17.98;;;12.10;98.40;;;;;;5006399;28;21683;-59
2021/09/06 06:51:32;;;;;;;32.85;18.17;;;12.20;98.10;;;;;;5012813;28;20120;-59
2021/09/06 06:53:58;;;;;;;37.95;22.08;;;12.30;98.00;;;;;;5011352;28;20041;-59
2021/09/06 06:56:24;;;;;;;32.55;18.83;;;12.40;98.30;;;;;;4997457;28;20046;-59
2021/09/06 06:58:49;;;;;;;34.15;19.85;;;12.50;98.30;;;;;;5008970;28;20042;-59
2021/09/06 07:01:16;;;;;;;31.42;19.55;;;12.60;98.20;;;;;;5007013;28;20485;-58
2021/09/06 07:03:41;;;;;;;34.20;19.85;;;12.70;98.10;;;;;;4996308;28;20030;-57
2021/09/06 07:06:07;;;;;;;34.60;20.33;;;12.80;98.00;;;;;;5011396;28;20121;-58
2021/09/06 07:08:32;;;;;;;37.13;20.55;;;12.90;98.00;;;;;;4999983;28;20538;-58
2021/09/06 07:10:58;;;;;;;36.47;20.80;;;13.00;98.00;;;;;;4992754;28;20045;-58
2021/09/06 07:13:23;;;;;;;37.58;22.70;;;13.10;97.90;;;;;;4995844;28;20208;-58
2021/09/06 07:15:49;;;;;;;37.00;23.10;;;13.20;97.90;;;;;;4993448;28;20054;-58
2021/09/06 07:18:14;;;;;;;40.70;22.73;;;13.30;97.90;;;;;;4997641;28;20046;-58
2021/09/06 07:20:40;;;;;;;36.40;21.60;;;13.50;98.00;;;;;;4992442;28;20038;-59
2021/09/06 07:23:05;;;;;;;36.67;22.83;;;13.60;97.90;;;;;;4989917;28;20039;-58
2021/09/06 07:25:31;;;;;;;36.83;22.25;;;13.70;97.80;;;;;;5001979;28;20113;-59
2021/09/06 07:27:57;;;;;;;37.97;23.00;;;13.80;97.90;;;;;;5003461;28;20507;-58
2021/09/06 07:30:22;;;;;;;39.08;23.48;;;14.00;97.90;;;;;;5001404;28;20113;-58
2021/09/06 07:32:48;;;;;;;38.25;22.55;;;14.20;97.90;;;;;;5007866;28;20386;-58
2021/09/06 07:35:14;;;;;;;40.50;22.95;;;14.30;97.80;;;;;;4998496;28;20046;-58
2021/09/06 07:37:40;;;;;;;36.08;23.42;;;14.50;97.60;;;;;;5006295;28;20036;-59
2021/09/06 07:40:10;;;;;;;39.35;24.15;;;14.60;97.60;;;;;;4998362;28;20042;-58
2021/09/06 07:42:36;;;;;;;40.05;22.38;;;14.80;97.60;;;;;;5005720;28;20088;-59
2021/09/06 07:45:03;;;;;;;33.65;21.90;;;14.90;97.40;;;;;;4992643;28;20052;-58
2021/09/06 07:47:29;;;;;;;38.25;21.98;;;15.10;97.30;;;;;;4995650;28;20113;-58
2021/09/06 07:49:57;;;;;;;32.95;20.85;;;15.30;96.90;;;;;;4993394;28;20049;-58
2021/09/06 07:52:23;;;;;;;37.88;22.25;;;15.40;96.50;;;;;;5007397;28;20042;-59
2021/09/06 07:54:48;;;;;;;38.38;22.67;;;15.60;96.20;;;;;;5006222;28;20037;-59
2021/09/06 07:57:14;;;;;;;36.30;22.25;;;15.70;96.30;;;;;;5000388;28;20376;-59
2021/09/06 07:59:39;;;;;;;37.22;22.17;;;15.80;96.20;;;;;;5010134;28;20091;-59
2021/09/06 08:02:05;;;;;;;36.63;22.50;;;15.90;96.20;;;;;;5006025;28;20040;-59
2021/09/06 08:04:31;;;;;;;33.85;21.92;;;16.00;96.20;;;;;;5009466;28;20045;-59
2021/09/06 08:06:56;;;;;;;36.33;21.65;;;16.00;96.10;;;;;;5003066;28;20034;-58
2021/09/06 08:09:22;;;;;;;35.25;21.38;;;16.10;96.00;;;;;;5007964;28;20044;-59
2021/09/06 08:11:48;;;;;;;33.28;20.85;;;16.20;95.70;;;;;;5010789;28;20125;-59
2021/09/06 08:14:15;;;;;;;28.42;18.77;;;16.30;95.50;;;;;;5006976;28;20115;-59
2021/09/06 08:16:41;;;;;;;35.65;20.95;;;16.40;95.10;;;;;;5004823;28;20143;-59
2021/09/06 08:19:07;;;;;;;35.53;21.42;;;16.40;94.70;;;;;;4999080;28;20066;-58
2021/09/06 08:21:32;;;;;;;39.10;22.88;;;16.50;94.80;;;;;;5001012;28;20034;-59
2021/09/06 08:23:58;;;;;;;32.17;21.80;;;16.60;94.70;;;;;;5010852;28;20042;-59
2021/09/06 08:26:25;;;;;;;28.65;18.13;;;16.70;94.60;;;;;;5010414;28;20044;-58
2021/09/06 08:28:51;;;;;;;30.80;19.75;;;16.90;94.40;;;;;;5005020;28;20407;-59
2021/09/06 08:31:17;;;;;;;30.40;17.85;;;17.00;94.00;;;;;;5005136;28;20253;-59
2021/09/06 08:33:42;;;;;;;26.35;17.10;;;17.20;93.40;;;;;;5010375;28;20149;-60
2021/09/06 08:36:10;;;;;;;24.80;16.95;;;17.30;93.30;;;;;;5010417;28;20560;-59
2021/09/06 08:38:37;;;;;;;25.35;16.25;;;17.30;93.10;;;;;;5003717;28;20045;-59
2021/09/06 08:41:03;;;;;;;23.33;15.40;;;17.40;92.20;;;;;;5004477;28;20038;-60
2021/09/06 08:43:31;;;;;;;21.70;14.48;;;17.50;92.40;;;;;;4991386;28;20486;-60
2021/09/06 08:45:57;;;;;;;25.70;15.98;;;17.60;92.00;;;;;;4996623;28;20132;-60
2021/09/06 08:48:23;;;;;;;23.05;14.65;;;17.60;91.50;;;;;;5000313;28;20439;-60
2021/09/06 08:50:48;;;;;;;22.55;13.70;;;17.70;91.50;;;;;;4996056;28;20043;-60
2021/09/06 08:53:14;;;;;;;22.77;14.70;;;17.70;91.50;;;;;;5000921;28;20077;-59
2021/09/06 08:55:40;;;;;;;20.92;13.43;;;17.80;91.40;;;;;;5003325;28;20076;-59
2021/09/06 08:58:06;;;;;;;22.42;14.25;;;17.90;90.10;;;;;;5005724;28;20053;-59
2021/09/06 09:00:31;;;;;;;21.50;13.32;;;18.10;90.30;;;;;;5010481;28;20034;-59
2021/09/06 09:02:59;;;;;;;20.67;13.20;;;18.20;90.50;;;;;;4978671;28;20035;-60
2021/09/06 09:05:25;;;;;;;20.08;13.35;;;18.30;90.20;;;;;;4992560;28;20568;-60
2021/09/06 09:07:58;;;;;;;19.75;13.13;;;18.40;89.40;;;;;;5003033;28;20031;-60
2021/09/06 09:10:32;;;;;;;20.35;12.23;;;18.50;87.30;;;;;;4989546;28;20038;-60
2021/09/06 09:13:05;;;;;;;18.17;11.75;;;18.60;87.90;;;;;;5000259;28;20033;-60
2021/09/06 09:15:31;;;;;;;19.02;11.88;;;18.60;87.40;;;;;;4999854;28;20513;-60
2021/09/06 09:17:57;;;;;;;19.92;11.90;;;18.70;84.40;;;;;;4999765;28;20494;-59
2021/09/06 09:20:35;;;;;;;20.27;12.55;;;18.70;84.40;;;;;;4994904;28;20044;-60
2021/09/06 09:23:03;;;;;;;18.38;12.00;;;18.90;86.00;;;;;;4998208;28;20406;-60
2021/09/06 09:25:31;;;;;;;20.38;12.10;;;19.00;83.80;;;;;;5002359;28;20044;-60
2021/09/06 09:27:57;;;;;;;18.55;11.90;;;19.00;82.20;;;;;;4996912;28;20038;-59
2021/09/06 09:30:24;;;;;;;19.67;11.32;;;19.10;82.80;;;;;;5003549;28;20034;-59
2021/09/06 09:33:14;;;;;;;20.33;12.10;;;19.20;81.80;;;;;;4967852;28;20044;-60
2021/09/06 09:35:40;;;;;;;17.95;11.88;;;19.20;79.60;;;;;;5003770;28;20026;-60
2021/09/06 09:38:09;;;;;;;16.88;11.45;;;19.30;81.40;;;;;;4998144;28;20053;-59
2021/09/06 09:40:39;;;;;;;22.90;11.68;;;19.40;81.20;;;;;;5002046;28;20046;-60
2021/09/06 09:43:06;;;;;;;19.52;11.68;;;19.50;80.70;;;;;;4996606;28;20030;-59
2021/09/06 09:45:32;;;;;;;19.88;11.85;;;19.60;80.50;;;;;;5005530;28;20256;-59
2021/09/06 09:47:58;;;;;;;16.10;11.18;;;19.70;79.50;;;;;;5008330;28;20048;-60
2021/09/06 09:50:26;;;;;;;16.30;11.20;;;19.70;80.10;;;;;;5005148;28;20065;-60
2021/09/06 09:52:53;;;;;;;15.43;10.27;;;19.80;77.60;;;;;;4996400;28;20069;-60
2021/09/06 09:55:20;;;;;;;16.65;11.63;;;19.80;77.50;;;;;;5005767;28;20045;-60
2021/09/06 09:57:45;;;;;;;16.33;11.55;;;19.90;76.90;;;;;;5005509;28;20042;-60
2021/09/06 10:00:14;;;;;;;17.70;11.60;;;19.90;76.90;;;;;;5005521;28;20045;-60
2021/09/06 10:02:48;;;;;;;16.05;11.02;;;20.00;76.30;;;;;;5007222;28;20397;-60
2021/09/06 10:05:14;;;;;;;18.73;11.38;;;20.10;74.20;;;;;;5010014;28;20409;-60
2021/09/06 10:07:45;;;;;;;15.80;11.00;;;20.10;74.10;;;;;;5000724;28;20438;-60
2021/09/06 10:10:19;;;;;;;16.08;10.63;;;20.10;74.20;;;;;;4997454;28;20038;-60
2021/09/06 10:13:00;;;;;;;15.82;11.57;;;20.10;75.50;;;;;;4996499;28;20188;-58
2021/09/06 10:15:26;;;;;;;16.63;11.00;;;20.20;75.10;;;;;;5008823;28;20120;-60
2021/09/06 10:17:52;;;;;;;19.00;10.98;;;20.30;74.70;;;;;;5003993;28;20162;-59
2021/09/06 10:20:21;;;;;;;17.05;11.82;;;20.40;74.60;;;;;;5001102;28;20038;-59
2021/09/06 10:22:59;;;;;;;15.65;10.48;;;20.40;72.90;;;;;;4997311;28;20034;-57
2021/09/06 10:25:29;;;;;;;17.90;10.95;;;20.50;73.80;;;;;;4997842;28;20044;-59
2021/09/06 10:28:05;;;;;;;15.45;10.80;;;20.50;73.90;;;;;;5006771;28;20041;-59
2021/09/06 10:30:47;;;;;;;16.52;10.45;;;20.60;74.60;;;;;;5003175;28;20068;-60
2021/09/06 10:33:34;;;;;;;14.55;10.55;;;20.70;71.80;;;;;;4998381;28;20033;-60
2021/09/06 10:36:08;;;;;;;14.88;10.65;;;20.80;72.20;;;;;;5002327;28;20045;-60
2021/09/06 10:38:45;;;;;;;15.70;10.02;;;20.90;71.40;;;;;;5000428;28;20042;-59
2021/09/06 10:41:19;;;;;;;14.88;10.18;;;20.90;72.30;;;;;;5004638;28;20034;-60
2021/09/06 10:43:50;;;;;;;15.60;10.32;;;21.00;72.40;;;;;;5006992;28;20040;-60
2021/09/06 10:46:17;;;;;;;13.98;9.48;;;21.00;71.30;;;;;;4998118;28;20038;-58
2021/09/06 10:48:43;;;;;;;17.65;10.10;;;21.00;71.50;;;;;;4997539;28;20049;-59
2021/09/06 10:51:09;;;;;;;16.40;10.93;;;21.20;71.10;;;;;;4983795;28;20042;-59
2021/09/06 10:53:37;;;;;;;14.30;9.68;;;21.20;68.30;;;;;;5004682;28;20065;-60
2021/09/06 10:56:05;;;;;;;13.82;9.63;;;21.20;69.30;;;;;;4998294;28;20038;-60
2021/09/06 10:58:30;;;;;;;17.08;10.30;;;21.20;68.50;;;;;;4992910;28;20384;-60
2021/09/06 11:00:58;;;;;;;14.35;9.93;;;21.10;69.40;;;;;;5008368;28;20057;-60
2021/09/06 11:03:32;;;;;;;14.10;8.93;;;21.10;70.20;;;;;;5004431;28;20034;-60
2021/09/06 11:05:58;;;;;;;13.82;8.38;;;21.10;70.20;;;;;;5000059;28;20044;-60
2021/09/06 11:08:29;;;;;;;12.88;7.75;;;21.10;70.20;;;;;;4997762;28;20034;-60
2021/09/06 11:10:57;;;;;;;15.68;7.97;;;21.10;68.10;;;;;;4999338;28;20045;-60
2021/09/06 11:13:31;;;;;;;10.93;8.10;;;21.00;69.00;;;;;;4980483;28;20056;-60
2021/09/06 11:15:57;;;;;;;10.68;7.65;;;21.00;69.30;;;;;;4998778;28;20099;-59
2021/09/06 11:18:22;;;;;;;12.10;8.70;;;20.90;65.70;;;;;;5004050;28;20042;-60
2021/09/06 11:20:48;;;;;;;13.95;8.15;;;20.80;67.20;;;;;;5001063;28;20041;-60
2021/09/06 11:23:14;;;;;;;11.05;7.30;;;20.70;67.70;;;;;;5000613;28;20042;-60
2021/09/06 11:25:41;;;;;;;11.27;6.30;;;20.60;67.30;;;;;;5002257;28;20041;-60
2021/09/06 11:28:08;;;;;;;9.77;6.82;;;20.50;65.70;;;;;;4993602;28;20042;-60
2021/09/06 11:30:35;;;;;;;10.45;7.22;;;20.50;66.10;;;;;;5004897;28;20037;-60
2021/09/06 11:33:04;;;;;;;10.65;6.45;;;20.50;66.80;;;;;;5001964;28;20117;-60
2021/09/06 11:35:30;;;;;;;14.10;7.22;;;20.40;67.90;;;;;;5007151;28;20037;-60
2021/09/06 11:37:57;;;;;;;12.00;7.50;;;20.50;69.20;;;;;;4996536;28;20038;-59
2021/09/06 11:40:22;;;;;;;12.52;7.72;;;20.60;68.80;;;;;;5004206;28;20042;-60
2021/09/06 11:42:48;;;;;;;10.25;6.75;;;20.70;69.40;;;;;;5003723;28;20045;-60
2021/09/06 11:45:18;;;;;;;12.23;6.32;;;20.90;66.10;;;;;;4997819;28;20493;-58
2021/09/06 11:47:44;;;;;;;10.00;6.70;;;21.10;63.50;;;;;;5004849;28;20033;-60
2021/09/06 11:50:11;;;;;;;11.05;7.35;;;21.20;64.10;;;;;;5008857;28;20037;-60
2021/09/06 11:52:39;;;;;;;14.38;7.80;;;21.40;62.90;;;;;;4996778;28;20426;-59
2021/09/06 11:55:25;;;;;;;10.90;8.15;;;21.50;63.70;;;;;;4998582;28;20145;-60
2021/09/06 11:57:51;;;;;;;12.00;8.23;;;21.60;64.50;;;;;;5003880;28;20056;-60
2021/09/06 12:00:18;;;;;;;14.25;9.10;;;21.60;65.70;;;;;;5008673;28;20034;-60
2021/09/06 12:02:52;;;;;;;14.88;8.90;;;21.70;63.40;;;;;;4994568;28;20046;-59
2021/09/06 12:05:18;;;;;;;15.13;9.80;;;21.70;63.60;;;;;;4997520;28;20368;-60
2021/09/06 12:07:56;;;;;;;12.80;8.65;;;21.60;63.40;;;;;;4999313;28;20077;-59
2021/09/06 12:10:34;;;;;;;14.02;8.82;;;21.50;64.50;;;;;;4997964;28;20050;-60
2021/09/06 12:13:04;;;;;;;14.07;8.95;;;21.50;65.40;;;;;;4998599;28;20080;-60
2021/09/06 12:15:33;;;;;;;13.27;9.00;;;21.60;65.40;;;;;;4994338;28;20050;-59
2021/09/06 12:18:11;;;;;;;13.02;8.57;;;21.60;64.60;;;;;;4992936;28;20117;-60
2021/09/06 12:20:39;;;;;;;15.30;8.98;;;21.70;63.30;;;;;;5001656;28;20111;-59
2021/09/06 12:23:06;;;;;;;12.90;8.68;;;21.60;64.20;;;;;;5007461;28;20042;-59
2021/09/06 12:25:32;;;;;;;15.90;8.93;;;21.70;65.80;;;;;;5008684;28;20410;-60
2021/09/06 12:28:12;;;;;;;13.55;8.85;;;21.80;64.40;;;;;;5014877;28;20037;-58